This is the latest recevied weather packets stored in our database for station/object W4SNA-4. If no packets are shown the sender has not sent any weather packets the latest 1 day(s).
| Time | Temp. | Humidity | Pressure | Rain* | Wind** | Luminosity | Snow |
|---|---|---|---|---|---|---|---|
| 1836274850 | 25.56° C | 58% | 1013.8 hPa | 0 mm | 0 m/s | - | - |
| 1836274550 | 25.56° C | 58% | 1013.8 hPa | 0 mm | 0 m/s | - | - |
| 1836274403 | 25.56° C | 61% | 1013.9 hPa | 0 mm | 0 m/s | - | - |
| 1836274250 | 25.56° C | 58% | 1013.8 hPa | 0 mm | 0 m/s | - | - |
| 1836273950 | 25.56° C | 58% | 1013.7 hPa | 0 mm | 0 m/s | - | - |
| 1778054336 | 17.22° C | 75% | 1008 hPa | 0 mm | 0 m/s | - | - |
| 1778054039 | 17.22° C | 76% | 1008.5 hPa | 0 mm | 0 m/s | - | - |
| 1778053527 | 17.22° C | 75% | 1008.5 hPa | 0 mm | 0 m/s | - | - |
| 1778053200 | 17.22° C | 75% | 1008.5 hPa | 0 mm | 0 m/s | - | - |
| 1778052903 | 17.22° C | 75% | 1008.5 hPa | 0 mm | 0 m/s | - | - |
| 1778052601 | 17.22° C | 75% | 1008.5 hPa | 0 mm | 0 m/s | - | - |
| 1778052300 | 17.22° C | 75% | 1008.4 hPa | 0 mm | 0 m/s | - | - |
| 1778052001 | 17.22° C | 75% | 1008.4 hPa | 0 mm | 0 m/s | - | - |
| 1778051701 | 17.22° C | 75% | 1008.4 hPa | 0 mm | 0 m/s | - | - |
| 1778051401 | 17.22° C | 75% | 1007.8 hPa | 0 mm | 0 m/s | - | - |
| 1778051103 | 17.22° C | 75% | 1007.8 hPa | 0 mm | 0 m/s | - | - |
| 1778050800 | 17.22° C | 75% | 1007.8 hPa | 0 mm | 0 m/s | - | - |
| 1778050501 | 17.78° C | 74% | 1008.1 hPa | 0 mm | 0 m/s | - | - |
| 1778050200 | 17.78° C | 74% | 1008.1 hPa | 0 mm | 0 m/s | - | - |
| 1778049901 | 17.78° C | 74% | 1008.1 hPa | 0 mm | 0 m/s | - | - |
| 1778049601 | 17.78° C | 74% | 1008.6 hPa | 0 mm | 0 m/s | - | - |
| 1778049300 | 17.78° C | 74% | 1008.6 hPa | 0 mm | 0 m/s | - | - |
| 1778048842 | 17.78° C | 73% | 1008.6 hPa | 0 mm | 0 m/s | - | - |
| 1778048545 | 17.78° C | 73% | 1008.6 hPa | 0 mm | 0 m/s | - | - |
| 1778048009 | 17.78° C | 72% | 1008.6 hPa | 0 mm | 0 m/s | - | - |
* Rain latest hour (hover to see other rain measurements)
** Current wind speed in m/s (hover to see current wind gust speed)